Time;durP1;ratioP1;P1;durP2;ratioP2;P2;SDS_P1;SDS_P2;PMS_P1;PMS_P2;Temp;Humidity;BMP_temperature;BMP_pressure;BME280_temperature;BME280_humidity;BME280_pressure;Samples;Min_cycle;Max_cycle;Signal;HPM_P1;HPM_P2
2021/08/08 00:00:23;;;;;;;0.90;0.50;;;18.30;75.30;;;;;;5045237;28;20032;-70
2021/08/08 00:03:07;;;;;;;3.25;0.77;;;18.30;75.30;;;;;;5044156;28;20036;-70
2021/08/08 00:05:51;;;;;;;2.20;0.50;;;18.30;75.50;;;;;;5043918;28;20228;-70
2021/08/08 00:08:36;;;;;;;2.67;0.40;;;18.30;75.10;;;;;;5043944;28;20037;-70
2021/08/08 00:11:20;;;;;;;0.88;0.40;;;18.30;74.80;;;;;;5043585;28;20064;-70
2021/08/08 00:14:05;;;;;;;3.22;0.60;;;18.30;74.70;;;;;;5044128;28;20055;-70
2021/08/08 00:16:49;;;;;;;1.92;0.43;;;18.30;74.90;;;;;;5044109;28;20044;-70
2021/08/08 00:19:33;;;;;;;3.15;0.90;;;18.30;74.90;;;;;;5043965;28;20097;-70
2021/08/08 00:22:18;;;;;;;1.58;0.50;;;18.30;75.30;;;;;;5043659;28;20044;-70
2021/08/08 00:25:03;;;;;;;11.00;0.90;;;18.20;75.60;;;;;;5043624;28;20216;-70
2021/08/08 00:27:47;;;;;;;3.42;0.70;;;18.10;76.00;;;;;;5044359;28;20049;-70
2021/08/08 00:30:32;;;;;;;5.50;0.75;;;18.00;76.30;;;;;;5043576;28;20120;-70
2021/08/08 00:33:17;;;;;;;6.07;1.30;;;18.00;76.60;;;;;;5044074;28;20029;-70
2021/08/08 00:36:01;;;;;;;6.18;0.60;;;18.10;76.40;;;;;;5043656;28;20055;-70
2021/08/08 00:38:46;;;;;;;11.48;0.77;;;18.10;76.50;;;;;;5044046;28;20036;-70
2021/08/08 00:41:30;;;;;;;4.15;0.70;;;18.10;76.50;;;;;;5043946;28;20068;-70
2021/08/08 00:44:14;;;;;;;0.90;0.45;;;18.20;76.30;;;;;;5043460;28;20217;-70
2021/08/08 00:46:58;;;;;;;1.42;0.40;;;18.20;76.30;;;;;;5043484;28;20076;-70
2021/08/08 00:49:42;;;;;;;1.67;0.50;;;18.30;76.00;;;;;;5043407;28;20033;-70
2021/08/08 00:52:27;;;;;;;1.25;0.50;;;18.20;75.70;;;;;;5043370;28;20029;-70
2021/08/08 00:55:11;;;;;;;3.03;0.63;;;18.20;76.00;;;;;;5043252;28;20136;-70
2021/08/08 00:57:56;;;;;;;2.83;0.50;;;18.10;76.40;;;;;;5043337;28;20360;-69
2021/08/08 01:00:40;;;;;;;2.80;0.40;;;18.00;76.40;;;;;;5043597;28;20068;-69
2021/08/08 01:03:24;;;;;;;1.58;0.60;;;18.10;76.40;;;;;;5042847;28;20059;-70
2021/08/08 01:06:24;;;;;;;1.10;0.65;;;18.00;76.50;;;;;;5042483;28;20055;-70
2021/08/08 01:09:10;;;;;;;0.82;0.50;;;18.00;76.60;;;;;;5042430;28;20080;-70
2021/08/08 01:11:54;;;;;;;0.50;0.40;;;18.00;76.60;;;;;;5043413;28;20052;-70
2021/08/08 01:14:39;;;;;;;0.80;0.57;;;18.10;76.50;;;;;;5043207;28;20076;-70
2021/08/08 01:17:23;;;;;;;1.05;0.55;;;18.10;76.30;;;;;;5042189;28;20041;-70
2021/08/08 01:20:11;;;;;;;1.23;0.55;;;18.00;76.60;;;;;;5043336;28;20075;-70
2021/08/08 01:22:57;;;;;;;1.60;0.70;;;18.10;76.70;;;;;;5046234;28;20036;-69
2021/08/08 01:25:41;;;;;;;1.33;0.50;;;18.00;76.70;;;;;;5046208;28;20044;-70
2021/08/08 01:28:26;;;;;;;2.60;0.68;;;18.10;76.60;;;;;;5046051;28;20033;-70
2021/08/08 01:31:10;;;;;;;3.92;0.65;;;18.10;76.40;;;;;;5046932;28;20032;-70
2021/08/08 01:33:54;;;;;;;2.53;0.50;;;18.10;76.50;;;;;;5046771;28;20031;-70
2021/08/08 01:36:38;;;;;;;2.15;0.70;;;18.10;76.50;;;;;;5046553;28;20092;-70
2021/08/08 01:39:23;;;;;;;0.98;0.50;;;18.10;76.50;;;;;;5047133;28;20265;-70
2021/08/08 01:42:10;;;;;;;2.65;0.63;;;18.10;76.50;;;;;;5046728;28;20067;-70
2021/08/08 01:44:54;;;;;;;4.22;0.70;;;18.10;76.60;;;;;;5045735;28;20041;-70
2021/08/08 01:47:41;;;;;;;0.95;0.50;;;17.90;77.00;;;;;;5046495;28;20036;-70
2021/08/08 01:50:31;;;;;;;3.35;0.47;;;18.00;76.80;;;;;;5046282;28;20032;-70
2021/08/08 01:53:15;;;;;;;3.88;0.50;;;18.10;76.80;;;;;;5045893;28;20040;-70
2021/08/08 01:55:59;;;;;;;4.80;0.60;;;18.00;76.60;;;;;;5045306;28;20072;-70
2021/08/08 01:58:43;;;;;;;3.15;0.50;;;18.00;76.80;;;;;;5046290;28;20092;-70
2021/08/08 02:01:28;;;;;;;4.03;0.50;;;18.00;77.10;;;;;;5045287;28;20273;-70
2021/08/08 02:04:24;;;;;;;3.05;0.70;;;18.10;76.90;;;;;;5046180;28;20220;-70
2021/08/08 02:07:13;;;;;;;2.10;0.50;;;18.10;76.90;;;;;;5046298;28;20028;-70
2021/08/08 02:09:57;;;;;;;6.53;0.75;;;18.10;76.80;;;;;;5046081;28;20033;-70
2021/08/08 02:12:41;;;;;;;1.85;0.50;;;18.20;76.70;;;;;;5046054;28;20360;-70
2021/08/08 02:15:26;;;;;;;2.75;0.60;;;18.10;76.70;;;;;;5046380;28;20032;-70
2021/08/08 02:18:10;;;;;;;4.70;0.50;;;18.10;76.80;;;;;;5046089;28;20083;-70
2021/08/08 02:20:54;;;;;;;5.55;1.00;;;18.10;77.10;;;;;;5046064;28;20397;-70
2021/08/08 02:23:38;;;;;;;1.45;0.50;;;18.10;77.20;;;;;;5045945;28;20056;-70
2021/08/08 02:26:23;;;;;;;1.17;0.50;;;18.00;77.20;;;;;;5046388;28;20339;-70
2021/08/08 02:29:07;;;;;;;2.80;0.60;;;18.10;77.20;;;;;;5046079;28;20039;-70
2021/08/08 02:31:51;;;;;;;1.65;0.63;;;18.00;77.20;;;;;;5046061;28;20212;-70
2021/08/08 02:34:36;;;;;;;1.67;0.57;;;18.00;77.20;;;;;;5045163;28;20041;-70
2021/08/08 02:37:20;;;;;;;2.05;0.60;;;18.00;77.30;;;;;;5045672;28;20040;-70
2021/08/08 02:40:05;;;;;;;3.67;0.50;;;18.10;77.30;;;;;;5045801;28;20185;-70
2021/08/08 02:42:49;;;;;;;1.40;0.50;;;18.00;77.50;;;;;;5045519;28;20305;-70
2021/08/08 02:45:33;;;;;;;3.20;0.50;;;17.90;77.40;;;;;;5045399;28;20132;-70
2021/08/08 02:48:18;;;;;;;1.75;0.68;;;17.90;77.30;;;;;;5045790;28;20084;-70
2021/08/08 02:51:02;;;;;;;2.88;0.60;;;17.80;77.50;;;;;;5045442;28;20076;-70
2021/08/08 02:53:46;;;;;;;5.20;0.80;;;17.80;77.30;;;;;;5045749;28;20071;-70
2021/08/08 02:56:30;;;;;;;0.85;0.50;;;17.80;77.40;;;;;;5045122;28;20067;-70
2021/08/08 02:59:15;;;;;;;1.25;0.60;;;17.90;77.50;;;;;;5045123;28;20052;-70
2021/08/08 03:01:59;;;;;;;4.18;0.70;;;17.80;77.40;;;;;;5045071;28;20347;-70
2021/08/08 03:04:44;;;;;;;1.70;0.60;;;17.90;77.30;;;;;;5045017;28;20036;-70
2021/08/08 03:07:28;;;;;;;1.38;0.55;;;17.90;77.30;;;;;;5044984;28;20024;-70
2021/08/08 03:10:13;;;;;;;1.25;0.60;;;17.90;77.30;;;;;;5044919;28;20033;-70
2021/08/08 03:12:57;;;;;;;2.05;0.60;;;17.90;77.10;;;;;;5044897;28;20096;-70
2021/08/08 03:15:41;;;;;;;0.80;0.40;;;17.90;77.10;;;;;;5045255;28;20068;-70
2021/08/08 03:18:26;;;;;;;3.45;0.70;;;18.00;77.00;;;;;;5045286;28;20028;-70
2021/08/08 03:21:10;;;;;;;1.85;0.57;;;17.90;77.00;;;;;;5044882;28;20383;-70
2021/08/08 03:23:54;;;;;;;0.85;0.57;;;17.90;77.10;;;;;;5044803;28;20078;-70
2021/08/08 03:26:38;;;;;;;1.38;0.40;;;17.90;77.10;;;;;;5045120;28;20033;-70
2021/08/08 03:29:23;;;;;;;0.57;0.40;;;17.90;77.10;;;;;;5044552;28;20350;-70
2021/08/08 03:32:07;;;;;;;0.60;0.45;;;17.90;77.30;;;;;;5044905;28;20032;-70
2021/08/08 03:34:51;;;;;;;1.58;0.40;;;17.90;77.00;;;;;;5044809;28;20045;-70
2021/08/08 03:37:36;;;;;;;2.50;0.60;;;17.90;77.00;;;;;;5044452;28;20359;-70
2021/08/08 03:40:20;;;;;;;1.70;0.60;;;17.90;76.80;;;;;;5044381;28;20079;-70
2021/08/08 03:43:08;;;;;;;3.17;0.50;;;17.80;77.00;;;;;;5044316;28;20033;-70
2021/08/08 03:45:52;;;;;;;2.35;0.52;;;17.80;76.90;;;;;;5043342;28;20040;-69
2021/08/08 03:48:37;;;;;;;1.23;0.63;;;17.80;76.80;;;;;;5044211;28;20033;-69
2021/08/08 03:51:21;;;;;;;1.63;0.60;;;17.80;77.10;;;;;;5044599;28;20048;-70
2021/08/08 03:54:05;;;;;;;3.42;0.50;;;17.80;77.30;;;;;;5044316;28;20224;-70
2021/08/08 03:56:49;;;;;;;2.20;0.50;;;17.80;76.90;;;;;;5044598;28;20043;-70
2021/08/08 03:59:33;;;;;;;0.95;0.60;;;17.90;76.60;;;;;;5044483;28;20124;-70
2021/08/08 04:02:18;;;;;;;10.25;0.60;;;17.90;76.40;;;;;;5043994;28;20266;-70
2021/08/08 04:05:02;;;;;;;3.88;0.40;;;17.80;76.90;;;;;;5043989;28;20064;-70
2021/08/08 04:07:46;;;;;;;3.53;0.68;;;17.90;76.80;;;;;;5043946;28;20036;-70
2021/08/08 04:10:31;;;;;;;13.10;1.27;;;18.00;76.60;;;;;;5043876;28;20028;-70
2021/08/08 04:13:15;;;;;;;2.45;0.80;;;17.90;77.00;;;;;;5044104;28;20229;-70
2021/08/08 04:15:59;;;;;;;1.40;0.50;;;17.90;76.80;;;;;;5043679;28;20371;-70
2021/08/08 04:18:44;;;;;;;3.70;0.60;;;17.90;76.80;;;;;;5043757;28;20044;-70
2021/08/08 04:21:28;;;;;;;4.70;0.55;;;18.00;76.90;;;;;;5043689;28;20063;-69
2021/08/08 04:24:12;;;;;;;3.53;0.57;;;18.10;76.70;;;;;;5043931;28;20391;-70
2021/08/08 04:26:56;;;;;;;6.32;0.70;;;17.80;77.40;;;;;;5043819;28;20145;-70
2021/08/08 04:29:41;;;;;;;2.78;0.50;;;17.70;77.70;;;;;;5044144;28;20040;-70
2021/08/08 04:32:25;;;;;;;1.67;0.70;;;17.80;77.50;;;;;;5043108;28;20132;-70
2021/08/08 04:35:10;;;;;;;1.75;0.50;;;17.70;77.80;;;;;;5043932;28;20149;-70
2021/08/08 04:37:54;;;;;;;1.67;0.60;;;17.50;78.40;;;;;;5043842;28;20032;-70
2021/08/08 04:40:38;;;;;;;4.13;0.73;;;17.60;78.00;;;;;;5043795;28;20052;-70
2021/08/08 04:43:22;;;;;;;1.95;0.50;;;17.50;78.30;;;;;;5044378;28;20352;-70
2021/08/08 04:46:07;;;;;;;2.67;0.60;;;17.80;77.70;;;;;;5044010;28;20048;-70
2021/08/08 04:48:51;;;;;;;2.08;0.50;;;17.80;77.60;;;;;;5044005;28;20090;-70
2021/08/08 04:51:35;;;;;;;6.38;0.75;;;17.80;77.40;;;;;;5042986;28;20032;-70
2021/08/08 04:54:20;;;;;;;4.22;1.00;;;17.90;77.10;;;;;;5044597;28;20209;-70
2021/08/08 04:57:04;;;;;;;1.40;0.55;;;17.90;77.10;;;;;;5045858;28;20037;-70
2021/08/08 04:59:48;;;;;;;4.70;0.73;;;17.90;77.20;;;;;;5048471;28;20037;-70
2021/08/08 05:02:33;;;;;;;3.50;0.60;;;17.90;77.00;;;;;;5048561;28;20267;-70
2021/08/08 05:05:17;;;;;;;1.08;0.60;;;17.80;77.30;;;;;;5047960;28;20037;-70
2021/08/08 05:08:02;;;;;;;2.10;0.60;;;17.60;78.20;;;;;;5047604;28;20045;-70
2021/08/08 05:10:46;;;;;;;1.60;0.60;;;17.70;78.10;;;;;;5048139;28;20044;-70
2021/08/08 05:13:31;;;;;;;3.10;0.63;;;17.80;77.90;;;;;;5019007;28;20040;-70
2021/08/08 05:16:17;;;;;;;4.05;0.60;;;17.80;77.70;;;;;;5047415;28;20098;-70
2021/08/08 05:19:02;;;;;;;1.58;0.50;;;17.80;77.60;;;;;;5047488;28;20091;-70
2021/08/08 05:21:46;;;;;;;1.38;0.68;;;17.80;77.60;;;;;;5047749;28;20277;-70
2021/08/08 05:24:30;;;;;;;1.77;0.70;;;17.90;77.60;;;;;;5047425;28;20099;-70
2021/08/08 05:27:15;;;;;;;0.80;0.52;;;17.90;77.60;;;;;;5047891;28;20208;-70
2021/08/08 05:30:02;;;;;;;2.53;0.60;;;18.00;77.60;;;;;;5047490;28;20032;-70
2021/08/08 05:32:46;;;;;;;1.13;0.60;;;17.90;77.70;;;;;;5048195;28;20039;-70
2021/08/08 05:35:30;;;;;;;4.38;0.70;;;17.90;77.50;;;;;;5047518;28;20080;-70
2021/08/08 05:38:15;;;;;;;1.00;0.50;;;18.00;77.60;;;;;;5047057;28;20032;-70
2021/08/08 05:40:59;;;;;;;4.20;0.60;;;18.10;77.60;;;;;;5047126;28;20097;-70
2021/08/08 05:43:43;;;;;;;1.65;0.50;;;18.10;77.50;;;;;;5047611;28;20036;-70
2021/08/08 05:46:28;;;;;;;10.48;0.90;;;17.90;78.30;;;;;;5047112;28;20064;-70
2021/08/08 05:49:12;;;;;;;1.75;0.60;;;17.80;78.80;;;;;;5047217;28;20155;-70
2021/08/08 05:51:56;;;;;;;2.47;0.93;;;17.90;78.70;;;;;;5047463;28;20025;-70
2021/08/08 05:54:43;;;;;;;1.85;0.70;;;17.90;79.10;;;;;;5046882;28;20032;-70
2021/08/08 05:57:27;;;;;;;2.90;0.63;;;18.00;78.80;;;;;;5046757;28;20093;-69
2021/08/08 06:00:12;;;;;;;2.30;0.70;;;18.10;78.70;;;;;;5047545;28;20032;-70
2021/08/08 06:02:56;;;;;;;2.65;0.57;;;18.30;78.50;;;;;;5046222;28;20035;-70
2021/08/08 06:05:41;;;;;;;1.20;0.60;;;18.30;78.50;;;;;;5047344;28;20120;-70
2021/08/08 06:08:26;;;;;;;2.53;0.60;;;18.30;78.30;;;;;;5045358;28;20075;-70
2021/08/08 06:11:11;;;;;;;3.38;0.70;;;18.30;78.20;;;;;;5046671;28;20040;-71
2021/08/08 06:13:55;;;;;;;2.33;0.70;;;18.30;78.30;;;;;;5046556;28;20041;-70
2021/08/08 06:16:39;;;;;;;1.08;0.50;;;18.40;78.00;;;;;;5046587;28;20110;-70
2021/08/08 06:19:23;;;;;;;2.35;0.60;;;18.30;78.60;;;;;;5046313;28;20032;-70
2021/08/08 06:22:08;;;;;;;1.58;0.50;;;18.40;78.50;;;;;;5046544;28;20045;-70
2021/08/08 06:24:52;;;;;;;1.58;0.60;;;18.40;78.60;;;;;;5046178;28;20049;-70
2021/08/08 06:27:36;;;;;;;2.75;0.57;;;18.40;78.30;;;;;;5046084;28;20351;-70
2021/08/08 06:30:21;;;;;;;2.45;0.80;;;18.50;78.10;;;;;;5046692;28;20068;-71
2021/08/08 06:33:05;;;;;;;1.45;0.50;;;18.60;77.40;;;;;;5046165;28;20033;-70
2021/08/08 06:35:51;;;;;;;0.80;0.50;;;18.40;77.50;;;;;;5046315;28;20079;-70
2021/08/08 06:38:36;;;;;;;1.08;0.57;;;18.40;77.80;;;;;;5046431;28;20052;-70
2021/08/08 06:41:21;;;;;;;2.08;0.50;;;18.40;77.90;;;;;;5046235;28;20032;-71
2021/08/08 06:44:05;;;;;;;0.77;0.50;;;18.50;77.50;;;;;;5045308;28;20340;-70
2021/08/08 06:46:49;;;;;;;4.32;0.50;;;18.50;77.70;;;;;;5046066;28;20103;-70
2021/08/08 06:49:34;;;;;;;0.90;0.50;;;18.50;77.50;;;;;;5045754;28;20024;-70
2021/08/08 06:52:18;;;;;;;7.93;0.70;;;18.40;78.00;;;;;;5046373;28;20033;-70
2021/08/08 06:55:02;;;;;;;2.58;0.52;;;18.50;77.60;;;;;;5045598;28;20082;-70
2021/08/08 06:57:46;;;;;;;1.10;0.50;;;18.60;77.60;;;;;;5045448;28;20212;-70
2021/08/08 07:00:31;;;;;;;2.35;0.65;;;18.60;77.70;;;;;;5045140;28;20020;-70
2021/08/08 07:03:15;;;;;;;2.08;0.60;;;18.60;77.70;;;;;;5045857;28;20323;-70
2021/08/08 07:05:59;;;;;;;0.65;0.47;;;18.60;77.70;;;;;;5045345;28;20041;-70
2021/08/08 07:08:47;;;;;;;2.10;0.63;;;18.70;77.90;;;;;;5046127;28;20036;-70
2021/08/08 07:11:31;;;;;;;1.35;0.70;;;18.80;78.00;;;;;;5046435;28;20048;-71
2021/08/08 07:14:16;;;;;;;1.58;0.80;;;18.80;77.60;;;;;;5045007;28;20032;-70
2021/08/08 07:17:00;;;;;;;1.95;1.25;;;18.90;76.80;;;;;;5045043;28;20052;-70
2021/08/08 07:19:44;;;;;;;2.67;0.63;;;18.90;76.50;;;;;;5044646;28;20371;-70
2021/08/08 07:22:28;;;;;;;0.90;0.52;;;18.80;76.50;;;;;;5044727;28;20032;-70
2021/08/08 07:25:13;;;;;;;2.47;0.52;;;18.90;76.80;;;;;;5044860;28;20229;-70
2021/08/08 07:27:57;;;;;;;2.15;0.55;;;18.90;76.90;;;;;;5044715;28;20390;-70
2021/08/08 07:30:41;;;;;;;1.23;0.63;;;18.90;77.20;;;;;;5044694;28;20087;-70
2021/08/08 07:33:25;;;;;;;5.72;0.68;;;19.00;77.20;;;;;;5045254;28;20028;-70
2021/08/08 07:36:10;;;;;;;1.10;0.50;;;19.00;76.90;;;;;;5044640;28;20068;-70
2021/08/08 07:38:55;;;;;;;1.27;0.60;;;19.10;77.20;;;;;;5044689;28;20371;-70
2021/08/08 07:41:39;;;;;;;1.02;0.60;;;19.00;77.30;;;;;;5045011;28;20095;-70
2021/08/08 07:44:23;;;;;;;2.45;0.70;;;19.10;77.40;;;;;;5044292;28;20382;-70
2021/08/08 07:47:08;;;;;;;2.65;0.68;;;19.00;77.40;;;;;;5044595;28;20071;-70
2021/08/08 07:49:52;;;;;;;1.25;0.88;;;19.00;77.70;;;;;;5044190;28;20317;-70
2021/08/08 07:52:36;;;;;;;1.45;0.50;;;19.10;77.50;;;;;;5044121;28;20068;-70
2021/08/08 07:55:21;;;;;;;2.35;0.60;;;19.10;77.70;;;;;;5044010;28;20089;-71
2021/08/08 07:58:05;;;;;;;3.33;0.70;;;19.10;77.60;;;;;;5044088;28;20028;-71
2021/08/08 08:00:50;;;;;;;3.80;0.60;;;19.20;77.20;;;;;;5044024;28;20044;-70
2021/08/08 08:03:34;;;;;;;1.15;0.60;;;19.20;76.90;;;;;;5043981;28;20112;-70
2021/08/08 08:06:18;;;;;;;2.42;0.52;;;19.30;77.00;;;;;;5043403;28;20028;-71
2021/08/08 08:09:02;;;;;;;1.40;0.68;;;19.30;77.30;;;;;;5043961;28;20075;-71
2021/08/08 08:11:47;;;;;;;1.52;0.82;;;19.40;77.10;;;;;;5044049;28;20037;-70
2021/08/08 08:14:31;;;;;;;1.48;0.52;;;19.40;76.30;;;;;;5043711;28;20075;-71
2021/08/08 08:17:15;;;;;;;1.52;0.65;;;19.50;76.30;;;;;;5043587;28;20041;-71
2021/08/08 08:19:59;;;;;;;2.70;1.00;;;19.60;76.60;;;;;;5043704;28;20079;-70
2021/08/08 08:22:44;;;;;;;2.30;0.77;;;19.70;76.30;;;;;;5043842;28;20052;-70
2021/08/08 08:25:28;;;;;;;2.10;0.80;;;19.70;76.10;;;;;;5043874;28;20383;-71
2021/08/08 08:28:13;;;;;;;2.97;0.65;;;19.80;75.50;;;;;;5043204;28;20355;-71
2021/08/08 08:30:57;;;;;;;3.05;0.70;;;19.90;75.70;;;;;;5043181;28;20037;-71
2021/08/08 08:33:41;;;;;;;2.80;0.60;;;20.00;74.70;;;;;;5043686;28;20032;-70
2021/08/08 08:36:25;;;;;;;1.55;0.70;;;20.00;74.80;;;;;;5043717;28;20079;-71
2021/08/08 08:39:09;;;;;;;1.52;0.52;;;20.00;75.00;;;;;;5044124;28;20035;-71
2021/08/08 08:41:57;;;;;;;1.85;0.60;;;20.10;74.30;;;;;;5043770;28;20040;-71
2021/08/08 08:44:41;;;;;;;2.30;0.70;;;20.10;73.30;;;;;;5044503;28;20086;-71
2021/08/08 08:47:26;;;;;;;6.57;0.60;;;20.10;73.30;;;;;;5044009;28;20101;-71
2021/08/08 08:50:10;;;;;;;3.25;0.70;;;20.00;73.30;;;;;;5044258;28;20075;-71
2021/08/08 08:52:54;;;;;;;3.38;1.10;;;20.10;73.50;;;;;;5044338;28;20360;-71
2021/08/08 08:55:39;;;;;;;1.75;0.57;;;20.10;72.60;;;;;;5044277;28;20128;-71
2021/08/08 08:58:23;;;;;;;2.03;0.70;;;20.10;72.00;;;;;;5043413;28;20025;-71
2021/08/08 09:01:07;;;;;;;2.40;0.75;;;20.10;71.70;;;;;;5042539;28;20079;-71
2021/08/08 09:03:51;;;;;;;1.90;0.60;;;20.20;71.00;;;;;;5043262;28;20209;-70
2021/08/08 09:06:35;;;;;;;1.52;0.70;;;20.20;71.70;;;;;;5043487;28;20211;-70
2021/08/08 09:09:20;;;;;;;1.85;0.50;;;20.20;71.60;;;;;;5043992;28;20044;-70
2021/08/08 09:12:05;;;;;;;1.95;0.73;;;20.20;71.20;;;;;;5044585;28;20040;-71
2021/08/08 09:15:03;;;;;;;3.75;0.70;;;20.10;70.20;;;;;;5043727;28;20076;-71
2021/08/08 09:17:47;;;;;;;1.40;0.52;;;20.10;70.40;;;;;;5042783;28;20040;-71
2021/08/08 09:20:32;;;;;;;3.42;0.60;;;20.20;70.90;;;;;;5043647;28;20028;-71
2021/08/08 09:23:16;;;;;;;1.42;0.60;;;20.20;71.00;;;;;;5043071;28;20103;-71
2021/08/08 09:26:00;;;;;;;2.20;0.70;;;20.30;70.90;;;;;;5043366;28;20037;-71
2021/08/08 09:28:44;;;;;;;2.58;0.93;;;20.30;70.50;;;;;;5043552;28;20097;-71
2021/08/08 09:31:29;;;;;;;2.85;0.80;;;20.30;71.10;;;;;;5043830;28;20232;-71
2021/08/08 09:34:33;;;;;;;2.42;0.60;;;20.30;70.50;;;;;;5043179;28;20375;-71
2021/08/08 09:37:18;;;;;;;2.38;0.70;;;20.40;69.30;;;;;;5043598;28;20367;-71
2021/08/08 09:40:11;;;;;;;3.53;0.73;;;20.40;69.60;;;;;;5043606;28;20264;-71
2021/08/08 09:42:55;;;;;;;1.40;0.60;;;20.50;68.80;;;;;;5044506;28;20370;-71
2021/08/08 09:45:43;;;;;;;5.22;0.90;;;20.50;67.90;;;;;;5047170;28;20048;-70
2021/08/08 09:48:39;;;;;;;1.75;0.50;;;20.50;67.20;;;;;;5047605;28;20056;-70
2021/08/08 09:51:23;;;;;;;3.83;0.80;;;20.50;67.80;;;;;;5047211;28;20243;-71
2021/08/08 09:54:07;;;;;;;2.25;0.70;;;20.60;67.10;;;;;;5045805;28;20091;-71
2021/08/08 09:57:00;;;;;;;2.08;0.55;;;20.60;67.20;;;;;;5046485;28;20037;-71
2021/08/08 09:59:51;;;;;;;1.08;0.60;;;20.70;66.30;;;;;;5047398;28;20087;-71
2021/08/08 10:02:35;;;;;;;2.60;0.70;;;20.80;66.40;;;;;;5047580;28;20059;-71
2021/08/08 10:05:21;;;;;;;2.70;0.73;;;20.80;67.00;;;;;;5031794;28;20056;-71
2021/08/08 10:08:15;;;;;;;1.30;0.63;;;20.80;66.50;;;;;;5047795;28;20132;-71
2021/08/08 10:11:02;;;;;;;1.48;0.70;;;20.90;65.50;;;;;;5046876;28;20405;-71
2021/08/08 10:13:52;;;;;;;2.38;0.70;;;20.90;66.90;;;;;;5045483;28;20036;-71
2021/08/08 10:16:37;;;;;;;2.53;0.90;;;20.90;67.50;;;;;;5045988;28;20059;-70
2021/08/08 10:19:21;;;;;;;1.83;0.70;;;21.00;67.40;;;;;;5046296;28;20044;-70
2021/08/08 10:22:05;;;;;;;1.77;0.73;;;21.10;66.90;;;;;;5045996;28;20025;-71
2021/08/08 10:24:52;;;;;;;2.05;0.70;;;21.10;66.60;;;;;;5045063;28;20056;-71
2021/08/08 10:27:37;;;;;;;5.13;0.82;;;21.10;66.40;;;;;;5045111;28;20083;-71
2021/08/08 10:30:21;;;;;;;2.72;0.80;;;21.10;67.10;;;;;;5045567;28;20020;-71
2021/08/08 10:33:05;;;;;;;3.03;0.80;;;21.20;67.60;;;;;;5022140;28;20033;-71
2021/08/08 10:35:51;;;;;;;1.38;0.60;;;21.20;66.90;;;;;;5045848;28;20037;-71
2021/08/08 10:38:36;;;;;;;2.03;0.85;;;21.10;65.70;;;;;;5046609;28;20075;-71
2021/08/08 10:41:20;;;;;;;3.10;0.90;;;21.10;65.70;;;;;;5046839;28;20097;-71
2021/08/08 10:44:13;;;;;;;2.20;0.55;;;21.20;65.30;;;;;;5045700;28;20214;-71
2021/08/08 10:46:58;;;;;;;1.15;0.50;;;21.20;65.40;;;;;;5046003;28;20217;-71
2021/08/08 10:49:42;;;;;;;4.47;0.60;;;21.20;65.40;;;;;;5045621;28;20140;-71
2021/08/08 10:52:27;;;;;;;1.20;0.55;;;21.20;64.80;;;;;;5045512;28;20092;-71
2021/08/08 10:55:22;;;;;;;2.63;0.60;;;21.20;64.40;;;;;;5029970;28;20128;-71
2021/08/08 10:58:14;;;;;;;3.63;0.85;;;21.30;63.60;;;;;;5045320;28;20051;-71
2021/08/08 11:00:59;;;;;;;2.33;1.00;;;21.30;63.60;;;;;;5045224;28;20048;-70
2021/08/08 11:03:53;;;;;;;1.30;0.65;;;21.30;64.10;;;;;;5045102;28;20032;-70
2021/08/08 11:06:39;;;;;;;2.08;0.63;;;21.30;63.10;;;;;;5045047;28;20044;-71
2021/08/08 11:09:23;;;;;;;1.38;0.60;;;21.40;64.10;;;;;;5045448;28;20375;-71
2021/08/08 11:12:08;;;;;;;2.10;0.50;;;21.50;63.50;;;;;;5045101;28;20049;-71
2021/08/08 11:14:53;;;;;;;1.45;0.60;;;21.50;63.80;;;;;;5045051;28;20193;-71
2021/08/08 11:17:37;;;;;;;4.40;0.60;;;21.60;64.60;;;;;;5045248;28;20074;-71
2021/08/08 11:20:29;;;;;;;2.80;0.75;;;21.70;63.50;;;;;;5045190;28;20052;-71
2021/08/08 11:23:13;;;;;;;1.70;0.60;;;21.70;62.80;;;;;;5044778;28;20068;-70
2021/08/08 11:25:57;;;;;;;2.53;0.77;;;21.80;62.80;;;;;;5045097;28;20032;-71
2021/08/08 11:28:48;;;;;;;0.98;0.60;;;21.80;62.30;;;;;;5043881;28;20055;-71
2021/08/08 11:31:34;;;;;;;2.97;0.70;;;21.90;62.70;;;;;;5044830;28;20080;-71
2021/08/08 11:34:23;;;;;;;2.15;0.60;;;22.00;62.90;;;;;;5044675;28;20051;-71
2021/08/08 11:37:07;;;;;;;1.13;0.50;;;22.10;62.10;;;;;;5044753;28;20076;-71
2021/08/08 11:39:51;;;;;;;1.60;0.57;;;22.20;62.10;;;;;;5044380;28;20028;-71
2021/08/08 11:42:35;;;;;;;1.30;0.65;;;22.30;61.90;;;;;;5044268;28;20067;-70
2021/08/08 11:45:30;;;;;;;1.33;0.55;;;22.30;60.60;;;;;;5044774;28;20025;-71
2021/08/08 11:48:19;;;;;;;4.05;0.70;;;22.30;61.40;;;;;;5043502;28;20140;-71
2021/08/08 11:51:03;;;;;;;2.15;0.50;;;22.30;60.50;;;;;;5044365;28;20220;-71
2021/08/08 11:53:54;;;;;;;1.88;0.40;;;22.30;60.20;;;;;;5044696;28;20040;-71
2021/08/08 11:56:39;;;;;;;2.17;0.70;;;22.20;57.00;;;;;;5044602;28;20079;-71
2021/08/08 11:59:27;;;;;;;1.80;0.60;;;22.20;58.50;;;;;;5044035;28;20036;-71
2021/08/08 12:02:11;;;;;;;0.85;0.40;;;22.10;58.20;;;;;;5044029;28;20052;-71
2021/08/08 12:04:55;;;;;;;1.83;0.63;;;22.10;58.20;;;;;;5044006;28;20132;-71
2021/08/08 12:07:40;;;;;;;2.88;0.65;;;22.10;58.40;;;;;;5043413;28;20037;-71
2021/08/08 12:10:28;;;;;;;2.17;0.45;;;22.00;58.70;;;;;;5042916;28;20083;-71
2021/08/08 12:13:17;;;;;;;3.00;0.75;;;21.90;59.40;;;;;;5043761;28;20036;-71
2021/08/08 12:16:11;;;;;;;1.70;0.70;;;21.80;58.40;;;;;;5043725;28;20056;-71
2021/08/08 12:18:56;;;;;;;3.70;0.90;;;21.80;59.90;;;;;;5043722;28;20036;-71
2021/08/08 12:21:40;;;;;;;1.98;0.60;;;21.80;60.60;;;;;;5043676;28;20093;-71
2021/08/08 12:24:31;;;;;;;1.38;0.50;;;21.80;60.90;;;;;;5043931;28;20052;-71
2021/08/08 12:27:17;;;;;;;2.33;0.90;;;21.80;61.00;;;;;;5043728;28;20036;-71
2021/08/08 12:30:01;;;;;;;2.55;0.70;;;21.60;60.10;;;;;;5044320;28;20032;-71
2021/08/08 12:32:45;;;;;;;5.47;0.70;;;21.60;60.40;;;;;;5044160;28;20052;-71
2021/08/08 12:35:39;;;;;;;1.77;0.70;;;21.50;61.20;;;;;;5043976;28;20029;-71
2021/08/08 12:38:24;;;;;;;2.75;0.70;;;21.50;61.30;;;;;;5043865;28;20037;-71
2021/08/08 12:41:08;;;;;;;2.60;0.65;;;21.50;61.60;;;;;;5043961;28;20027;-71
2021/08/08 12:43:57;;;;;;;2.83;0.70;;;21.50;61.20;;;;;;5042810;28;20033;-71
2021/08/08 12:46:41;;;;;;;2.22;0.77;;;21.50;61.30;;;;;;5043739;28;20028;-71
2021/08/08 12:49:38;;;;;;;2.88;0.63;;;21.60;60.30;;;;;;5043714;28;20076;-71
2021/08/08 12:52:22;;;;;;;2.53;0.68;;;21.60;60.50;;;;;;5043526;28;20374;-71
2021/08/08 12:55:08;;;;;;;2.45;0.73;;;21.50;61.20;;;;;;5043533;28;20040;-71
2021/08/08 12:57:52;;;;;;;3.90;0.70;;;21.40;60.20;;;;;;5043411;28;20079;-71
2021/08/08 13:00:36;;;;;;;2.42;0.98;;;21.40;60.90;;;;;;5043289;28;20355;-70
2021/08/08 13:03:20;;;;;;;2.17;0.73;;;21.40;60.50;;;;;;5044092;28;20020;-71
2021/08/08 13:06:04;;;;;;;3.42;0.70;;;21.40;61.00;;;;;;5043527;28;20035;-71
2021/08/08 13:08:49;;;;;;;2.55;0.80;;;21.40;60.50;;;;;;5043836;28;20057;-71
2021/08/08 13:11:33;;;;;;;2.20;0.98;;;21.40;61.20;;;;;;5043713;28;20072;-71
2021/08/08 13:14:18;;;;;;;1.92;0.60;;;21.30;61.20;;;;;;5042276;28;20071;-71
2021/08/08 13:17:02;;;;;;;3.85;0.55;;;21.30;61.00;;;;;;5043815;28;20048;-71
2021/08/08 13:19:46;;;;;;;3.88;0.90;;;21.30;61.00;;;;;;5047310;28;20044;-71
2021/08/08 13:22:30;;;;;;;3.83;1.17;;;21.30;61.40;;;;;;5046200;28;20100;-70
2021/08/08 13:25:14;;;;;;;1.60;0.75;;;21.20;62.90;;;;;;5046968;28;20052;-70
2021/08/08 13:28:00;;;;;;;1.27;0.60;;;21.20;62.80;;;;;;5046993;28;20067;-70
2021/08/08 13:30:44;;;;;;;1.80;0.80;;;21.20;63.10;;;;;;5046847;28;20361;-71
2021/08/08 13:33:30;;;;;;;2.50;0.95;;;21.20;62.60;;;;;;5046823;28;20317;-70
2021/08/08 13:36:14;;;;;;;4.32;0.82;;;21.10;61.10;;;;;;5047154;28;20071;-71
2021/08/08 13:38:58;;;;;;;1.65;0.77;;;21.10;61.60;;;;;;5046851;28;20377;-71
2021/08/08 13:41:42;;;;;;;1.20;0.57;;;20.90;61.00;;;;;;5047201;28;20032;-70
2021/08/08 13:44:27;;;;;;;2.22;1.00;;;20.90;60.80;;;;;;5047100;28;20036;-71
2021/08/08 13:47:11;;;;;;;4.53;0.80;;;20.90;61.00;;;;;;5046926;28;20048;-70
2021/08/08 13:49:55;;;;;;;1.95;0.70;;;20.90;60.30;;;;;;5046972;28;20032;-71
2021/08/08 13:52:40;;;;;;;1.25;0.80;;;20.80;61.20;;;;;;5047123;28;20075;-70
2021/08/08 13:55:25;;;;;;;1.50;0.63;;;20.80;62.40;;;;;;5046978;28;20084;-70
2021/08/08 13:58:09;;;;;;;2.55;1.08;;;20.80;61.50;;;;;;5046291;28;20083;-70
2021/08/08 14:00:53;;;;;;;2.00;0.80;;;20.80;61.10;;;;;;5045504;28;20028;-70
2021/08/08 14:03:37;;;;;;;4.85;1.17;;;20.70;61.60;;;;;;5046240;28;20067;-70
2021/08/08 14:06:25;;;;;;;4.22;0.90;;;20.70;61.60;;;;;;5046612;28;20060;-70
2021/08/08 14:09:09;;;;;;;1.65;0.80;;;20.70;62.00;;;;;;5046307;28;20225;-70
2021/08/08 14:11:57;;;;;;;4.90;1.08;;;20.80;61.40;;;;;;5046254;28;20031;-70
2021/08/08 14:14:43;;;;;;;2.17;0.70;;;20.80;61.10;;;;;;5045199;28;20035;-70
2021/08/08 14:17:26;;;;;;;2.65;0.77;;;20.80;61.50;;;;;;5045884;28;20144;-70